sensor_id;sensor_type;location;lat;lon;timestamp;temperature;humidity
34837;DHT22;21053;50.848;4.652;2022-09-29T00:01:56;8.20;99.90
34837;DHT22;21053;50.848;4.652;2022-09-29T00:04:24;8.10;99.90
34837;DHT22;21053;50.848;4.652;2022-09-29T00:09:18;7.90;99.90
34837;DHT22;21053;50.848;4.652;2022-09-29T00:11:53;7.70;99.90
34837;DHT22;21053;50.848;4.652;2022-09-29T00:14:22;7.60;99.90
34837;DHT22;21053;50.848;4.652;2022-09-29T00:16:52;7.50;99.90
34837;DHT22;21053;50.848;4.652;2022-09-29T00:19:19;7.40;99.90
34837;DHT22;21053;50.848;4.652;2022-09-29T00:21:45;7.50;99.90
34837;DHT22;21053;50.848;4.652;2022-09-29T00:24:12;7.40;99.90
34837;DHT22;21053;50.848;4.652;2022-09-29T00:26:41;7.40;99.90
34837;DHT22;21053;50.848;4.652;2022-09-29T00:29:09;7.50;99.90
34837;DHT22;21053;50.848;4.652;2022-09-29T00:31:37;7.60;99.90
34837;DHT22;21053;50.848;4.652;2022-09-29T00:34:06;7.60;99.90
34837;DHT22;21053;50.848;4.652;2022-09-29T00:36:35;7.60;99.90
34837;DHT22;21053;50.848;4.652;2022-09-29T00:39:02;7.60;99.90
34837;DHT22;21053;50.848;4.652;2022-09-29T00:41:36;7.50;99.90
34837;DHT22;21053;50.848;4.652;2022-09-29T00:46:58;7.40;99.90
34837;DHT22;21053;50.848;4.652;2022-09-29T00:49:39;7.20;99.90
34837;DHT22;21053;50.848;4.652;2022-09-29T00:52:11;7.20;99.90
34837;DHT22;21053;50.848;4.652;2022-09-29T00:54:49;7.30;99.90
34837;DHT22;21053;50.848;4.652;2022-09-29T00:57:21;7.30;99.90
34837;DHT22;21053;50.848;4.652;2022-09-29T00:59:55;7.30;99.90
34837;DHT22;21053;50.848;4.652;2022-09-29T01:02:24;7.30;99.90
34837;DHT22;21053;50.848;4.652;2022-09-29T01:04:57;9.40;99.90
34837;DHT22;21053;50.848;4.652;2022-09-29T01:07:25;7.20;99.90
34837;DHT22;21053;50.848;4.652;2022-09-29T01:09:56;7.10;99.90
34837;DHT22;21053;50.848;4.652;2022-09-29T01:12:40;7.20;99.90
34837;DHT22;21053;50.848;4.652;2022-09-29T01:15:07;7.10;99.90
34837;DHT22;21053;50.848;4.652;2022-09-29T01:17:36;7.10;99.90
34837;DHT22;21053;50.848;4.652;2022-09-29T01:20:19;7.10;99.90
34837;DHT22;21053;50.848;4.652;2022-09-29T01:23:08;7.10;99.90
34837;DHT22;21053;50.848;4.652;2022-09-29T01:31:53;7.00;99.90
34837;DHT22;21053;50.848;4.652;2022-09-29T01:34:36;6.90;99.90
34837;DHT22;21053;50.848;4.652;2022-09-29T01:39:57;6.90;99.90
34837;DHT22;21053;50.848;4.652;2022-09-29T01:42:33;6.80;99.90
34837;DHT22;21053;50.848;4.652;2022-09-29T01:45:19;6.70;99.90
34837;DHT22;21053;50.848;4.652;2022-09-29T01:47:54;6.70;99.90
34837;DHT22;21053;50.848;4.652;2022-09-29T01:50:26;6.60;99.90
34837;DHT22;21053;50.848;4.652;2022-09-29T01:53:00;6.50;99.90
34837;DHT22;21053;50.848;4.652;2022-09-29T01:55:31;6.50;99.90
34837;DHT22;21053;50.848;4.652;2022-09-29T01:58:02;6.70;99.90
34837;DHT22;21053;50.848;4.652;2022-09-29T02:00:35;6.70;99.90
34837;DHT22;21053;50.848;4.652;2022-09-29T02:03:31;6.60;99.90
34837;DHT22;21053;50.848;4.652;2022-09-29T02:06:08;6.60;99.90
34837;DHT22;21053;50.848;4.652;2022-09-29T02:08:47;6.80;99.90
34837;DHT22;21053;50.848;4.652;2022-09-29T02:11:16;6.90;99.90
34837;DHT22;21053;50.848;4.652;2022-09-29T02:16:22;6.60;99.90
34837;DHT22;21053;50.848;4.652;2022-09-29T02:19:00;6.50;99.90
34837;DHT22;21053;50.848;4.652;2022-09-29T02:21:30;6.40;99.90
34837;DHT22;21053;50.848;4.652;2022-09-29T02:23:59;6.40;99.90
34837;DHT22;21053;50.848;4.652;2022-09-29T02:26:31;6.20;99.90
34837;DHT22;21053;50.848;4.652;2022-09-29T02:29:00;6.30;99.90
34837;DHT22;21053;50.848;4.652;2022-09-29T02:31:29;6.30;99.90
34837;DHT22;21053;50.848;4.652;2022-09-29T02:33:57;6.40;99.90
34837;DHT22;21053;50.848;4.652;2022-09-29T02:36:44;6.40;99.90
34837;DHT22;21053;50.848;4.652;2022-09-29T02:42:37;6.20;99.90
34837;DHT22;21053;50.848;4.652;2022-09-29T02:47:58;6.10;99.90
34837;DHT22;21053;50.848;4.652;2022-09-29T02:50:47;6.00;99.90
34837;DHT22;21053;50.848;4.652;2022-09-29T02:53:24;5.90;99.90
34837;DHT22;21053;50.848;4.652;2022-09-29T02:59:03;7.00;99.90
34837;DHT22;21053;50.848;4.652;2022-09-29T03:01:49;5.80;99.90
34837;DHT22;21053;50.848;4.652;2022-09-29T03:04:19;5.90;99.90
34837;DHT22;21053;50.848;4.652;2022-09-29T03:06:46;5.90;99.90
34837;DHT22;21053;50.848;4.652;2022-09-29T03:09:15;5.90;99.90
34837;DHT22;21053;50.848;4.652;2022-09-29T03:11:44;5.80;99.90
34837;DHT22;21053;50.848;4.652;2022-09-29T03:14:11;5.80;99.90
34837;DHT22;21053;50.848;4.652;2022-09-29T03:16:38;5.90;99.90
34837;DHT22;21053;50.848;4.652;2022-09-29T03:19:07;5.90;99.90
34837;DHT22;21053;50.848;4.652;2022-09-29T03:21:38;6.10;99.90
34837;DHT22;21053;50.848;4.652;2022-09-29T03:24:12;6.20;99.90
34837;DHT22;21053;50.848;4.652;2022-09-29T03:26:38;6.10;99.90
34837;DHT22;21053;50.848;4.652;2022-09-29T03:29:05;5.90;99.90
34837;DHT22;21053;50.848;4.652;2022-09-29T03:31:34;5.80;99.90
34837;DHT22;21053;50.848;4.652;2022-09-29T03:34:00;5.90;99.90
34837;DHT22;21053;50.848;4.652;2022-09-29T03:36:26;6.00;99.90
34837;DHT22;21053;50.848;4.652;2022-09-29T03:38:53;5.90;99.90
34837;DHT22;21053;50.848;4.652;2022-09-29T03:41:25;5.80;99.90
34837;DHT22;21053;50.848;4.652;2022-09-29T03:43:52;5.70;99.90
34837;DHT22;21053;50.848;4.652;2022-09-29T03:46:20;5.60;99.90
34837;DHT22;21053;50.848;4.652;2022-09-29T03:48:48;5.50;99.90
34837;DHT22;21053;50.848;4.652;2022-09-29T03:51:15;5.50;99.90
34837;DHT22;21053;50.848;4.652;2022-09-29T03:53:42;5.60;99.90
34837;DHT22;21053;50.848;4.652;2022-09-29T03:56:07;6.40;99.90
34837;DHT22;21053;50.848;4.652;2022-09-29T03:58:34;5.80;99.90
34837;DHT22;21053;50.848;4.652;2022-09-29T04:01:03;5.70;99.90
34837;DHT22;21053;50.848;4.652;2022-09-29T04:03:29;5.80;99.90
34837;DHT22;21053;50.848;4.652;2022-09-29T04:05:57;5.80;99.90
34837;DHT22;21053;50.848;4.652;2022-09-29T04:08:24;5.70;99.90
34837;DHT22;21053;50.848;4.652;2022-09-29T04:10:53;5.70;99.90
34837;DHT22;21053;50.848;4.652;2022-09-29T04:13:21;5.80;99.90
34837;DHT22;21053;50.848;4.652;2022-09-29T04:16:00;5.80;99.90
34837;DHT22;21053;50.848;4.652;2022-09-29T04:18:27;5.80;99.90
34837;DHT22;21053;50.848;4.652;2022-09-29T04:20:56;5.60;99.90
34837;DHT22;21053;50.848;4.652;2022-09-29T04:23:28;5.60;99.90
34837;DHT22;21053;50.848;4.652;2022-09-29T04:25:56;5.50;99.90
34837;DHT22;21053;50.848;4.652;2022-09-29T04:28:25;5.60;99.90
34837;DHT22;21053;50.848;4.652;2022-09-29T04:30:54;5.70;99.90
34837;DHT22;21053;50.848;4.652;2022-09-29T04:33:23;5.70;99.90
34837;DHT22;21053;50.848;4.652;2022-09-29T04:35:49;6.00;99.90
34837;DHT22;21053;50.848;4.652;2022-09-29T04:38:18;5.60;99.90
34837;DHT22;21053;50.848;4.652;2022-09-29T04:40:47;5.60;99.90
34837;DHT22;21053;50.848;4.652;2022-09-29T04:43:14;5.70;99.90
34837;DHT22;21053;50.848;4.652;2022-09-29T04:45:43;5.80;99.90
34837;DHT22;21053;50.848;4.652;2022-09-29T04:48:12;5.70;99.90
34837;DHT22;21053;50.848;4.652;2022-09-29T04:50:41;5.60;99.90
34837;DHT22;21053;50.848;4.652;2022-09-29T04:53:10;5.40;99.90
34837;DHT22;21053;50.848;4.652;2022-09-29T04:55:37;5.50;99.90
34837;DHT22;21053;50.848;4.652;2022-09-29T04:58:03;5.50;99.90
34837;DHT22;21053;50.848;4.652;2022-09-29T05:00:29;5.60;99.90
34837;DHT22;21053;50.848;4.652;2022-09-29T05:02:59;5.60;99.90
34837;DHT22;21053;50.848;4.652;2022-09-29T05:05:28;5.60;99.90
34837;DHT22;21053;50.848;4.652;2022-09-29T05:07:57;5.50;99.90
34837;DHT22;21053;50.848;4.652;2022-09-29T05:10:32;5.50;99.90
34837;DHT22;21053;50.848;4.652;2022-09-29T05:13:00;5.50;99.90
34837;DHT22;21053;50.848;4.652;2022-09-29T05:15:29;5.60;99.90
34837;DHT22;21053;50.848;4.652;2022-09-29T05:18:00;5.70;99.90
34837;DHT22;21053;50.848;4.652;2022-09-29T05:20:26;5.40;99.90
34837;DHT22;21053;50.848;4.652;2022-09-29T05:22:53;5.60;99.90
34837;DHT22;21053;50.848;4.652;2022-09-29T05:25:22;5.80;99.90
34837;DHT22;21053;50.848;4.652;2022-09-29T05:27:51;5.70;99.90
34837;DHT22;21053;50.848;4.652;2022-09-29T05:30:18;5.50;99.90
34837;DHT22;21053;50.848;4.652;2022-09-29T05:32:47;5.50;99.90
34837;DHT22;21053;50.848;4.652;2022-09-29T05:35:13;5.50;99.90
34837;DHT22;21053;50.848;4.652;2022-09-29T05:37:42;5.60;99.90
34837;DHT22;21053;50.848;4.652;2022-09-29T05:40:10;5.60;99.90
34837;DHT22;21053;50.848;4.652;2022-09-29T05:42:39;5.30;99.90
34837;DHT22;21053;50.848;4.652;2022-09-29T05:45:08;5.60;99.90
34837;DHT22;21053;50.848;4.652;2022-09-29T05:47:42;5.50;99.90
34837;DHT22;21053;50.848;4.652;2022-09-29T05:50:11;5.60;99.90
34837;DHT22;21053;50.848;4.652;2022-09-29T05:52:39;5.50;99.90
34837;DHT22;21053;50.848;4.652;2022-09-29T05:55:08;5.30;99.90
34837;DHT22;21053;50.848;4.652;2022-09-29T05:57:40;5.20;99.90
34837;DHT22;21053;50.848;4.652;2022-09-29T06:00:12;5.30;99.90
34837;DHT22;21053;50.848;4.652;2022-09-29T06:02:38;5.40;99.90
34837;DHT22;21053;50.848;4.652;2022-09-29T06:05:04;5.30;99.90
34837;DHT22;21053;50.848;4.652;2022-09-29T06:07:31;5.50;99.90
34837;DHT22;21053;50.848;4.652;2022-09-29T06:10:00;5.50;99.90
34837;DHT22;21053;50.848;4.652;2022-09-29T06:12:26;5.60;99.90
34837;DHT22;21053;50.848;4.652;2022-09-29T06:14:55;5.60;99.90
34837;DHT22;21053;50.848;4.652;2022-09-29T06:17:21;5.60;99.90
34837;DHT22;21053;50.848;4.652;2022-09-29T06:19:47;5.70;99.90
34837;DHT22;21053;50.848;4.652;2022-09-29T06:22:23;5.70;99.90
34837;DHT22;21053;50.848;4.652;2022-09-29T06:24:52;5.60;99.90
34837;DHT22;21053;50.848;4.652;2022-09-29T06:27:27;5.50;99.90
34837;DHT22;21053;50.848;4.652;2022-09-29T06:30:00;5.70;99.90
34837;DHT22;21053;50.848;4.652;2022-09-29T06:32:27;5.80;99.90
34837;DHT22;21053;50.848;4.652;2022-09-29T06:34:56;5.80;99.90
34837;DHT22;21053;50.848;4.652;2022-09-29T06:37:44;5.60;99.90
34837;DHT22;21053;50.848;4.652;2022-09-29T06:40:14;5.80;99.90
34837;DHT22;21053;50.848;4.652;2022-09-29T06:42:39;5.90;99.90
34837;DHT22;21053;50.848;4.652;2022-09-29T06:45:05;6.00;99.90
34837;DHT22;21053;50.848;4.652;2022-09-29T06:47:37;6.10;99.90
34837;DHT22;21053;50.848;4.652;2022-09-29T06:50:04;6.30;99.90
34837;DHT22;21053;50.848;4.652;2022-09-29T06:52:35;6.30;99.90
34837;DHT22;21053;50.848;4.652;2022-09-29T06:55:03;6.40;99.90
34837;DHT22;21053;50.848;4.652;2022-09-29T06:57:30;6.60;99.90
34837;DHT22;21053;50.848;4.652;2022-09-29T06:59:58;6.80;99.90
34837;DHT22;21053;50.848;4.652;2022-09-29T07:02:24;6.80;99.90
34837;DHT22;21053;50.848;4.652;2022-09-29T07:04:53;7.00;99.90
34837;DHT22;21053;50.848;4.652;2022-09-29T07:07:20;7.30;99.90
34837;DHT22;21053;50.848;4.652;2022-09-29T07:09:47;7.40;99.90
34837;DHT22;21053;50.848;4.652;2022-09-29T07:12:13;7.50;99.90
34837;DHT22;21053;50.848;4.652;2022-09-29T07:14:42;7.50;99.90
34837;DHT22;21053;50.848;4.652;2022-09-29T07:17:12;7.60;99.90
34837;DHT22;21053;50.848;4.652;2022-09-29T07:19:41;7.70;99.90
34837;DHT22;21053;50.848;4.652;2022-09-29T07:22:09;7.90;99.90
34837;DHT22;21053;50.848;4.652;2022-09-29T07:24:38;8.00;99.90
34837;DHT22;21053;50.848;4.652;2022-09-29T07:27:07;8.20;99.90
34837;DHT22;21053;50.848;4.652;2022-09-29T07:29:33;8.30;99.90
34837;DHT22;21053;50.848;4.652;2022-09-29T07:32:05;8.50;99.90
34837;DHT22;21053;50.848;4.652;2022-09-29T07:34:31;8.70;99.90
34837;DHT22;21053;50.848;4.652;2022-09-29T07:37:00;8.70;99.90
34837;DHT22;21053;50.848;4.652;2022-09-29T07:39:28;8.80;99.90
34837;DHT22;21053;50.848;4.652;2022-09-29T07:41:55;9.00;99.90
34837;DHT22;21053;50.848;4.652;2022-09-29T07:44:23;9.10;99.90
34837;DHT22;21053;50.848;4.652;2022-09-29T07:46:50;9.20;99.90
34837;DHT22;21053;50.848;4.652;2022-09-29T07:49:22;9.20;99.90
34837;DHT22;21053;50.848;4.652;2022-09-29T07:51:49;9.20;99.90
34837;DHT22;21053;50.848;4.652;2022-09-29T07:54:17;9.30;99.90
34837;DHT22;21053;50.848;4.652;2022-09-29T07:56:44;9.30;99.90
34837;DHT22;21053;50.848;4.652;2022-09-29T07:59:11;9.40;99.90
34837;DHT22;21053;50.848;4.652;2022-09-29T08:01:38;9.50;99.90
34837;DHT22;21053;50.848;4.652;2022-09-29T08:04:04;9.50;99.90
34837;DHT22;21053;50.848;4.652;2022-09-29T08:06:30;9.50;99.90
34837;DHT22;21053;50.848;4.652;2022-09-29T08:09:52;9.60;99.90
34837;DHT22;21053;50.848;4.652;2022-09-29T08:12:18;9.80;99.90
34837;DHT22;21053;50.848;4.652;2022-09-29T08:14:44;9.80;99.90
34837;DHT22;21053;50.848;4.652;2022-09-29T08:17:13;9.70;99.90
34837;DHT22;21053;50.848;4.652;2022-09-29T08:19:39;9.90;99.90
34837;DHT22;21053;50.848;4.652;2022-09-29T08:22:05;10.00;99.90
34837;DHT22;21053;50.848;4.652;2022-09-29T08:24:34;10.10;99.90
34837;DHT22;21053;50.848;4.652;2022-09-29T08:27:02;10.40;99.90
34837;DHT22;21053;50.848;4.652;2022-09-29T08:29:32;10.40;99.90
34837;DHT22;21053;50.848;4.652;2022-09-29T08:32:00;10.50;99.90
34837;DHT22;21053;50.848;4.652;2022-09-29T08:34:29;10.70;99.90
34837;DHT22;21053;50.848;4.652;2022-09-29T08:39:26;11.00;99.90
34837;DHT22;21053;50.848;4.652;2022-09-29T08:42:15;11.10;99.90
34837;DHT22;21053;50.848;4.652;2022-09-29T08:44:55;11.20;99.90
34837;DHT22;21053;50.848;4.652;2022-09-29T08:47:46;11.40;99.90
34837;DHT22;21053;50.848;4.652;2022-09-29T08:50:28;11.50;99.90
34837;DHT22;21053;50.848;4.652;2022-09-29T08:53:06;11.60;99.90
34837;DHT22;21053;50.848;4.652;2022-09-29T08:55:56;11.60;99.90
34837;DHT22;21053;50.848;4.652;2022-09-29T08:58:26;11.70;99.90
34837;DHT22;21053;50.848;4.652;2022-09-29T09:01:17;11.90;99.90
34837;DHT22;21053;50.848;4.652;2022-09-29T09:07:23;13.00;99.90
34837;DHT22;21053;50.848;4.652;2022-09-29T09:10:24;14.00;99.90
34837;DHT22;21053;50.848;4.652;2022-09-29T09:16:35;15.80;99.90
34837;DHT22;21053;50.848;4.652;2022-09-29T09:25:04;17.40;99.90
34837;DHT22;21053;50.848;4.652;2022-09-29T09:27:45;17.70;99.90
34837;DHT22;21053;50.848;4.652;2022-09-29T09:30:15;17.90;99.30
34837;DHT22;21053;50.848;4.652;2022-09-29T09:32:49;18.30;99.00
34837;DHT22;21053;50.848;4.652;2022-09-29T09:35:37;18.30;98.20
34837;DHT22;21053;50.848;4.652;2022-09-29T09:38:58;18.60;98.90
34837;DHT22;21053;50.848;4.652;2022-09-29T09:40:58;18.60;95.80
34837;DHT22;21053;50.848;4.652;2022-09-29T09:43:30;19.30;96.10
34837;DHT22;21053;50.848;4.652;2022-09-29T09:46:25;19.60;96.10
34837;DHT22;21053;50.848;4.652;2022-09-29T09:49:03;19.70;95.40
34837;DHT22;21053;50.848;4.652;2022-09-29T09:54:41;20.30;92.80
34837;DHT22;21053;50.848;4.652;2022-09-29T10:02:32;20.80;91.00
34837;DHT22;21053;50.848;4.652;2022-09-29T10:05:01;20.90;90.60
34837;DHT22;21053;50.848;4.652;2022-09-29T10:07:28;21.10;88.50
34837;DHT22;21053;50.848;4.652;2022-09-29T10:09:58;21.10;90.80
34837;DHT22;21053;50.848;4.652;2022-09-29T10:13:35;21.00;89.20
34837;DHT22;21053;50.848;4.652;2022-09-29T10:18:53;21.50;89.40
34837;DHT22;21053;50.848;4.652;2022-09-29T10:23:56;21.70;86.80
34837;DHT22;21053;50.848;4.652;2022-09-29T10:26:43;21.70;85.90
34837;DHT22;21053;50.848;4.652;2022-09-29T10:29:37;21.70;86.40
34837;DHT22;21053;50.848;4.652;2022-09-29T10:34:45;22.10;86.40
34837;DHT22;21053;50.848;4.652;2022-09-29T10:37:25;22.00;84.90
34837;DHT22;21053;50.848;4.652;2022-09-29T10:42:40;22.40;81.90
34837;DHT22;21053;50.848;4.652;2022-09-29T10:45:16;22.40;84.00
34837;DHT22;21053;50.848;4.652;2022-09-29T10:50:30;22.60;81.80
34837;DHT22;21053;50.848;4.652;2022-09-29T10:53:02;22.90;82.40
34837;DHT22;21053;50.848;4.652;2022-09-29T10:55:35;23.60;82.40
34837;DHT22;21053;50.848;4.652;2022-09-29T10:58:34;23.70;80.00
34837;DHT22;21053;50.848;4.652;2022-09-29T11:03:33;23.80;79.80
34837;DHT22;21053;50.848;4.652;2022-09-29T11:06:05;24.40;77.70
34837;DHT22;21053;50.848;4.652;2022-09-29T11:08:53;24.70;76.20
34837;DHT22;21053;50.848;4.652;2022-09-29T11:11:33;25.40;72.00
34837;DHT22;21053;50.848;4.652;2022-09-29T11:14:02;25.30;73.00
34837;DHT22;21053;50.848;4.652;2022-09-29T11:16:36;24.80;75.70
34837;DHT22;21053;50.848;4.652;2022-09-29T11:19:28;24.60;71.50
34837;DHT22;21053;50.848;4.652;2022-09-29T11:27:58;24.00;74.30
34837;DHT22;21053;50.848;4.652;2022-09-29T11:44:31;24.10;74.10
34837;DHT22;21053;50.848;4.652;2022-09-29T11:47:02;24.40;71.30
34837;DHT22;21053;50.848;4.652;2022-09-29T11:55:27;26.90;68.00
34837;DHT22;21053;50.848;4.652;2022-09-29T11:58:14;26.90;66.20
34837;DHT22;21053;50.848;4.652;2022-09-29T12:06:59;28.60;58.00
34837;DHT22;21053;50.848;4.652;2022-09-29T12:15:38;29.10;56.90
34837;DHT22;21053;50.848;4.652;2022-09-29T12:18:14;28.60;54.70
34837;DHT22;21053;50.848;4.652;2022-09-29T12:20:43;27.30;57.80
34837;DHT22;21053;50.848;4.652;2022-09-29T12:23:14;25.40;62.20
34837;DHT22;21053;50.848;4.652;2022-09-29T12:28:36;22.50;70.20
34837;DHT22;21053;50.848;4.652;2022-09-29T12:31:14;21.60;73.90
34837;DHT22;21053;50.848;4.652;2022-09-29T12:36:46;20.80;80.50
34837;DHT22;21053;50.848;4.652;2022-09-29T12:48:30;19.80;77.90
34837;DHT22;21053;50.848;4.652;2022-09-29T12:51:04;19.60;81.90
34837;DHT22;21053;50.848;4.652;2022-09-29T12:54:04;19.40;85.00
34837;DHT22;21053;50.848;4.652;2022-09-29T12:56:44;19.10;88.00
34837;DHT22;21053;50.848;4.652;2022-09-29T12:59:30;19.00;87.80
34837;DHT22;21053;50.848;4.652;2022-09-29T13:01:58;18.90;89.40
34837;DHT22;21053;50.848;4.652;2022-09-29T13:04:47;18.90;88.60
34837;DHT22;21053;50.848;4.652;2022-09-29T13:27:06;18.00;92.00
34837;DHT22;21053;50.848;4.652;2022-09-29T13:29:45;17.80;90.50
34837;DHT22;21053;50.848;4.652;2022-09-29T13:32:13;17.90;92.20
34837;DHT22;21053;50.848;4.652;2022-09-29T13:34:46;18.30;91.90
34837;DHT22;21053;50.848;4.652;2022-09-29T13:37:18;18.80;90.10
34837;DHT22;21053;50.848;4.652;2022-09-29T13:40:06;19.00;87.30
34837;DHT22;21053;50.848;4.652;2022-09-29T13:42:43;19.20;85.30
34837;DHT22;21053;50.848;4.652;2022-09-29T13:47:55;19.50;83.90
34837;DHT22;21053;50.848;4.652;2022-09-29T13:55:52;19.70;77.90
34837;DHT22;21053;50.848;4.652;2022-09-29T13:58:59;19.70;80.90
34837;DHT22;21053;50.848;4.652;2022-09-29T14:01:36;19.40;78.60
34837;DHT22;21053;50.848;4.652;2022-09-29T14:07:12;19.30;83.40
34837;DHT22;21053;50.848;4.652;2022-09-29T14:09:46;19.00;79.30
34837;DHT22;21053;50.848;4.652;2022-09-29T14:12:23;18.80;80.50
34837;DHT22;21053;50.848;4.652;2022-09-29T14:14:57;18.80;86.60
34837;DHT22;21053;50.848;4.652;2022-09-29T14:17:50;18.70;90.20
34837;DHT22;21053;50.848;4.652;2022-09-29T14:20:30;18.70;90.80
34837;DHT22;21053;50.848;4.652;2022-09-29T14:23:05;18.50;89.80
34837;DHT22;21053;50.848;4.652;2022-09-29T14:28:18;18.40;90.70
34837;DHT22;21053;50.848;4.652;2022-09-29T14:30:52;18.30;91.50
34837;DHT22;21053;50.848;4.652;2022-09-29T14:38:31;18.30;93.90
34837;DHT22;21053;50.848;4.652;2022-09-29T15:01:32;17.90;96.00
34837;DHT22;21053;50.848;4.652;2022-09-29T15:04:15;18.10;94.90
34837;DHT22;21053;50.848;4.652;2022-09-29T15:06:49;18.10;94.40
34837;DHT22;21053;50.848;4.652;2022-09-29T15:09:42;18.10;94.60
34837;DHT22;21053;50.848;4.652;2022-09-29T15:12:29;18.10;94.20
34837;DHT22;21053;50.848;4.652;2022-09-29T15:14:56;18.10;93.80
34837;DHT22;21053;50.848;4.652;2022-09-29T15:17:44;18.10;91.50
34837;DHT22;21053;50.848;4.652;2022-09-29T15:20:25;17.90;94.10
34837;DHT22;21053;50.848;4.652;2022-09-29T15:25:42;17.90;93.60
34837;DHT22;21053;50.848;4.652;2022-09-29T15:28:30;17.90;94.10
34837;DHT22;21053;50.848;4.652;2022-09-29T15:31:01;18.00;94.20
34837;DHT22;21053;50.848;4.652;2022-09-29T15:33:30;17.90;95.00
34837;DHT22;21053;50.848;4.652;2022-09-29T15:36:02;17.90;94.30
34837;DHT22;21053;50.848;4.652;2022-09-29T15:38:36;17.90;95.10
34837;DHT22;21053;50.848;4.652;2022-09-29T15:41:25;17.80;94.20
34837;DHT22;21053;50.848;4.652;2022-09-29T15:44:12;17.80;94.20
34837;DHT22;21053;50.848;4.652;2022-09-29T15:46:55;17.70;93.80
34837;DHT22;21053;50.848;4.652;2022-09-29T15:49:25;17.60;95.50
34837;DHT22;21053;50.848;4.652;2022-09-29T15:54:23;17.60;94.20
34837;DHT22;21053;50.848;4.652;2022-09-29T15:56:50;17.60;95.10
34837;DHT22;21053;50.848;4.652;2022-09-29T15:59:51;17.40;96.90
34837;DHT22;21053;50.848;4.652;2022-09-29T16:02:27;17.40;97.70
34837;DHT22;21053;50.848;4.652;2022-09-29T16:05:00;17.40;97.00
34837;DHT22;21053;50.848;4.652;2022-09-29T16:07:34;17.40;96.00
34837;DHT22;21053;50.848;4.652;2022-09-29T16:10:16;17.30;96.40
34837;DHT22;21053;50.848;4.652;2022-09-29T16:13:03;17.30;96.90
34837;DHT22;21053;50.848;4.652;2022-09-29T16:15:46;17.20;97.70
34837;DHT22;21053;50.848;4.652;2022-09-29T16:18:23;17.00;98.50
34837;DHT22;21053;50.848;4.652;2022-09-29T16:20:52;17.00;98.80
34837;DHT22;21053;50.848;4.652;2022-09-29T16:26:12;16.70;99.40
34837;DHT22;21053;50.848;4.652;2022-09-29T16:31:45;16.60;99.90
34837;DHT22;21053;50.848;4.652;2022-09-29T16:39:44;16.50;99.90
34837;DHT22;21053;50.848;4.652;2022-09-29T16:42:24;16.30;99.90
34837;DHT22;21053;50.848;4.652;2022-09-29T16:44:54;16.10;99.90
34837;DHT22;21053;50.848;4.652;2022-09-29T16:47:28;16.00;99.90
34837;DHT22;21053;50.848;4.652;2022-09-29T16:50:01;16.00;99.90
34837;DHT22;21053;50.848;4.652;2022-09-29T16:52:48;16.00;99.90
34837;DHT22;21053;50.848;4.652;2022-09-29T16:55:17;15.80;99.90
34837;DHT22;21053;50.848;4.652;2022-09-29T16:58:07;15.70;99.90
34837;DHT22;21053;50.848;4.652;2022-09-29T17:00:34;15.50;99.90
34837;DHT22;21053;50.848;4.652;2022-09-29T17:03:01;15.30;99.90
34837;DHT22;21053;50.848;4.652;2022-09-29T17:05:34;15.30;99.90
34837;DHT22;21053;50.848;4.652;2022-09-29T17:08:13;15.20;99.90
34837;DHT22;21053;50.848;4.652;2022-09-29T17:10:42;15.10;99.90
34837;DHT22;21053;50.848;4.652;2022-09-29T17:13:14;15.00;99.90
34837;DHT22;21053;50.848;4.652;2022-09-29T17:15:41;14.90;99.90
34837;DHT22;21053;50.848;4.652;2022-09-29T17:18:14;14.80;99.90
34837;DHT22;21053;50.848;4.652;2022-09-29T17:20:41;14.70;99.90
34837;DHT22;21053;50.848;4.652;2022-09-29T17:23:10;14.20;99.90
34837;DHT22;21053;50.848;4.652;2022-09-29T17:25:43;14.10;99.90
34837;DHT22;21053;50.848;4.652;2022-09-29T17:28:18;14.20;99.90
34837;DHT22;21053;50.848;4.652;2022-09-29T17:30:50;14.30;99.90
34837;DHT22;21053;50.848;4.652;2022-09-29T17:33:18;14.30;99.90
34837;DHT22;21053;50.848;4.652;2022-09-29T17:35:50;14.30;99.90
34837;DHT22;21053;50.848;4.652;2022-09-29T17:38:19;14.20;99.90
34837;DHT22;21053;50.848;4.652;2022-09-29T17:41:04;14.20;99.90
34837;DHT22;21053;50.848;4.652;2022-09-29T17:43:30;14.10;99.90
34837;DHT22;21053;50.848;4.652;2022-09-29T17:46:04;13.90;99.90
34837;DHT22;21053;50.848;4.652;2022-09-29T17:48:33;13.80;99.90
34837;DHT22;21053;50.848;4.652;2022-09-29T17:50:59;13.40;99.90
34837;DHT22;21053;50.848;4.652;2022-09-29T17:53:27;13.40;99.90
34837;DHT22;21053;50.848;4.652;2022-09-29T17:55:56;13.40;99.90
34837;DHT22;21053;50.848;4.652;2022-09-29T17:58:25;13.60;99.90
34837;DHT22;21053;50.848;4.652;2022-09-29T18:00:54;13.50;99.90
34837;DHT22;21053;50.848;4.652;2022-09-29T18:03:23;13.50;99.90
34837;DHT22;21053;50.848;4.652;2022-09-29T18:05:52;13.40;99.90
34837;DHT22;21053;50.848;4.652;2022-09-29T18:08:24;13.30;99.90
34837;DHT22;21053;50.848;4.652;2022-09-29T18:10:59;13.20;99.90
34837;DHT22;21053;50.848;4.652;2022-09-29T18:13:29;13.00;99.90
34837;DHT22;21053;50.848;4.652;2022-09-29T18:16:00;12.80;99.90
34837;DHT22;21053;50.848;4.652;2022-09-29T18:18:26;12.80;99.90
34837;DHT22;21053;50.848;4.652;2022-09-29T18:21:02;12.60;99.90
34837;DHT22;21053;50.848;4.652;2022-09-29T18:23:31;12.50;99.90
34837;DHT22;21053;50.848;4.652;2022-09-29T18:26:00;12.60;99.90
34837;DHT22;21053;50.848;4.652;2022-09-29T18:28:26;12.80;99.90
34837;DHT22;21053;50.848;4.652;2022-09-29T18:31:26;12.80;99.90
34837;DHT22;21053;50.848;4.652;2022-09-29T18:33:54;12.70;99.90
34837;DHT22;21053;50.848;4.652;2022-09-29T18:36:23;12.60;99.90
34837;DHT22;21053;50.848;4.652;2022-09-29T18:38:50;12.30;99.90
34837;DHT22;21053;50.848;4.652;2022-09-29T18:41:18;12.40;99.90
34837;DHT22;21053;50.848;4.652;2022-09-29T18:43:46;12.30;99.90
34837;DHT22;21053;50.848;4.652;2022-09-29T18:46:16;12.40;99.90
34837;DHT22;21053;50.848;4.652;2022-09-29T18:48:41;12.40;99.90
34837;DHT22;21053;50.848;4.652;2022-09-29T18:51:08;12.30;99.90
34837;DHT22;21053;50.848;4.652;2022-09-29T18:53:38;12.30;99.90
34837;DHT22;21053;50.848;4.652;2022-09-29T18:56:14;12.20;99.90
34837;DHT22;21053;50.848;4.652;2022-09-29T18:58:44;12.20;99.90
34837;DHT22;21053;50.848;4.652;2022-09-29T19:01:15;12.10;99.90
34837;DHT22;21053;50.848;4.652;2022-09-29T19:03:44;12.00;99.90
34837;DHT22;21053;50.848;4.652;2022-09-29T19:06:15;11.80;99.90
34837;DHT22;21053;50.848;4.652;2022-09-29T19:08:44;11.90;99.90
34837;DHT22;21053;50.848;4.652;2022-09-29T19:11:23;11.90;99.90
34837;DHT22;21053;50.848;4.652;2022-09-29T19:13:53;11.90;99.90
34837;DHT22;21053;50.848;4.652;2022-09-29T19:16:26;11.80;99.90
34837;DHT22;21053;50.848;4.652;2022-09-29T19:20:07;11.70;99.90
34837;DHT22;21053;50.848;4.652;2022-09-29T19:22:35;11.30;99.90
34837;DHT22;21053;50.848;4.652;2022-09-29T19:25:21;11.20;99.90
34837;DHT22;21053;50.848;4.652;2022-09-29T19:27:50;11.20;99.90
34837;DHT22;21053;50.848;4.652;2022-09-29T19:30:19;11.20;99.90